createdAt,value
2023-02-06T00:04:10.529Z,10.85
2023-02-06T00:09:03.763Z,12.18
2023-02-06T00:13:57.275Z,10.55
2023-02-06T00:18:51.178Z,11.05
2023-02-06T00:23:44.136Z,11.27
2023-02-06T00:28:38.197Z,11.27
2023-02-06T00:33:31.462Z,14.90
2023-02-06T00:38:24.604Z,11.50
2023-02-06T00:43:17.907Z,9.60
2023-02-06T00:48:10.979Z,9.68
2023-02-06T00:53:04.252Z,9.35
2023-02-06T00:57:58.182Z,9.57
2023-02-06T01:02:51.367Z,9.88
2023-02-06T01:07:45.101Z,9.40
2023-02-06T01:12:38.429Z,9.13
2023-02-06T01:17:32.773Z,9.50
2023-02-06T01:22:26.100Z,10.55
2023-02-06T01:27:18.617Z,12.35
2023-02-06T01:32:14.711Z,12.35
2023-02-06T01:37:07.439Z,10.75
2023-02-06T01:42:00.882Z,10.20
2023-02-06T01:46:56.510Z,9.63
2023-02-06T01:51:49.720Z,10.82
2023-02-06T01:56:46.291Z,9.40
2023-02-06T02:01:39.810Z,8.50
2023-02-06T02:06:33.325Z,9.48
2023-02-06T02:11:36.504Z,9.73
2023-02-06T02:16:29.184Z,8.10
2023-02-06T02:21:49.732Z,15.40
2023-02-06T02:27:06.160Z,10.00
2023-02-06T02:32:04.217Z,7.35
2023-02-06T02:37:18.396Z,5.78
2023-02-06T02:42:23.719Z,6.32
2023-02-06T02:47:17.965Z,8.35
2023-02-06T02:52:11.168Z,7.18
2023-02-06T02:57:28.200Z,9.90
2023-02-06T03:02:30.747Z,10.50
2023-02-06T03:07:40.728Z,12.43
2023-02-06T03:12:43.314Z,12.13
2023-02-06T03:17:42.869Z,11.80
2023-02-06T03:22:45.040Z,10.85
2023-02-06T03:27:40.859Z,12.20
2023-02-06T03:32:37.077Z,11.55
2023-02-06T03:37:30.947Z,11.13
2023-02-06T03:42:23.216Z,11.48
2023-02-06T03:47:17.392Z,10.57
2023-02-06T03:52:15.965Z,9.45
2023-02-06T03:57:12.171Z,8.27
2023-02-06T04:02:05.838Z,6.90
2023-02-06T04:07:01.000Z,7.35
2023-02-06T04:11:54.391Z,8.63
2023-02-06T04:16:47.816Z,7.90
2023-02-06T04:21:41.449Z,7.32
2023-02-06T04:26:34.327Z,7.68
2023-02-06T04:31:28.783Z,8.40
2023-02-06T04:36:22.432Z,9.18
2023-02-06T04:41:15.988Z,9.35
2023-02-06T04:46:08.972Z,7.95
2023-02-06T04:51:02.569Z,8.20
2023-02-06T04:56:03.463Z,8.15
2023-02-06T05:00:56.009Z,10.68
2023-02-06T05:05:49.748Z,8.02
2023-02-06T05:10:42.820Z,8.82
2023-02-06T05:15:40.063Z,10.18
2023-02-06T05:20:33.090Z,8.57
2023-02-06T05:25:26.339Z,7.50
2023-02-06T05:30:19.854Z,7.50
2023-02-06T05:35:13.046Z,7.10
2023-02-06T05:40:08.402Z,7.63
2023-02-06T05:45:02.266Z,7.40
2023-02-06T05:49:56.232Z,7.82
2023-02-06T05:54:49.905Z,8.15
2023-02-06T05:59:43.062Z,6.97
2023-02-06T06:04:36.467Z,9.00
2023-02-06T06:09:30.245Z,8.60
2023-02-06T06:14:23.636Z,8.40
2023-02-06T06:19:16.453Z,8.85
2023-02-06T06:24:10.853Z,8.30
2023-02-06T06:29:04.772Z,9.57
2023-02-06T06:33:58.757Z,7.05
2023-02-06T06:38:51.417Z,8.10
2023-02-06T06:43:45.025Z,8.63
2023-02-06T06:48:38.397Z,9.68
2023-02-06T06:53:31.462Z,8.43
2023-02-06T06:58:23.724Z,8.98
2023-02-06T07:03:16.357Z,9.02
2023-02-06T07:08:09.582Z,9.27
2023-02-06T07:13:02.694Z,10.15
2023-02-06T07:17:56.096Z,13.57
2023-02-06T07:22:50.780Z,12.35
2023-02-06T07:27:44.122Z,12.80
2023-02-06T07:32:39.046Z,11.63
2023-02-06T07:37:32.435Z,11.10
2023-02-06T07:42:25.728Z,10.05
2023-02-06T07:47:23.534Z,10.10
2023-02-06T07:52:16.432Z,12.15
2023-02-06T07:57:10.107Z,10.55
2023-02-06T08:02:04.538Z,9.95
2023-02-06T08:06:58.205Z,10.13
2023-02-06T08:11:52.081Z,12.82
2023-02-06T08:16:46.405Z,13.68
2023-02-06T08:21:39.681Z,13.55
2023-02-06T08:26:33.440Z,14.18
2023-02-06T08:31:32.706Z,13.15
2023-02-06T08:36:27.082Z,13.00
2023-02-06T08:41:30.370Z,12.98
2023-02-06T08:46:25.416Z,12.20
2023-02-06T08:51:17.850Z,10.70
2023-02-06T08:56:12.953Z,11.38
2023-02-06T09:01:11.018Z,11.70
2023-02-06T09:06:09.930Z,11.00
2023-02-06T09:11:13.590Z,9.50
2023-02-06T09:16:07.987Z,9.18
2023-02-06T09:21:20.389Z,9.20
2023-02-06T09:26:22.156Z,8.98
2023-02-06T09:31:15.342Z,6.60
2023-02-06T09:36:15.178Z,6.60
2023-02-06T09:41:33.396Z,7.25
2023-02-06T09:46:31.698Z,6.67
2023-02-06T09:51:30.224Z,6.70
2023-02-06T09:56:47.414Z,7.38
2023-02-06T10:01:47.079Z,4.85
2023-02-06T10:07:15.586Z,3.50
2023-02-06T10:12:20.703Z,2.55
2023-02-06T10:17:22.439Z,3.15
2023-02-06T10:22:21.648Z,2.75
2023-02-06T10:27:15.442Z,3.08
2023-02-06T10:32:27.939Z,3.63
2023-02-06T10:37:25.202Z,3.00
2023-02-06T10:42:36.123Z,4.05
2023-02-06T10:47:40.661Z,3.83
2023-02-06T10:52:37.835Z,3.13
2023-02-06T10:57:32.369Z,3.55
2023-02-06T11:03:08.332Z,3.35
2023-02-06T11:08:22.342Z,2.95
2023-02-06T11:13:22.305Z,2.95
2023-02-06T11:18:20.190Z,3.63
2023-02-06T11:23:26.162Z,3.78
2023-02-06T11:28:23.372Z,2.90
2023-02-06T11:33:23.164Z,2.85
2023-02-06T11:38:19.365Z,3.50
2023-02-06T11:43:25.058Z,4.85
2023-02-06T11:48:36.810Z,3.70
2023-02-06T11:53:29.009Z,2.92
2023-02-06T11:58:25.828Z,4.00
2023-02-06T12:03:47.016Z,3.55
2023-02-06T12:08:42.886Z,3.35
2023-02-06T12:13:40.177Z,3.88
2023-02-06T12:18:38.254Z,2.97
2023-02-06T12:23:49.528Z,3.63
2023-02-06T12:29:03.166Z,3.65
2023-02-06T12:34:05.175Z,4.63
2023-02-06T12:39:20.481Z,3.97
2023-02-06T12:44:46.192Z,4.03
2023-02-06T12:50:04.658Z,3.75
2023-02-06T12:55:25.232Z,3.53
2023-02-06T13:00:21.734Z,3.78
2023-02-06T13:05:39.041Z,3.70
2023-02-06T13:10:33.017Z,4.22
2023-02-06T13:15:29.167Z,4.18
2023-02-06T13:20:24.919Z,3.13
2023-02-06T13:25:28.201Z,4.05
2023-02-06T13:30:29.514Z,3.53
2023-02-06T13:35:30.018Z,3.20
2023-02-06T13:40:30.882Z,4.32
2023-02-06T13:45:49.601Z,4.15
2023-02-06T13:50:58.402Z,6.45
2023-02-06T13:56:14.823Z,5.85
2023-02-06T14:01:14.569Z,5.40
2023-02-06T14:06:33.926Z,4.05
2023-02-06T14:12:09.542Z,4.10
2023-02-06T14:17:09.845Z,5.30
2023-02-06T14:22:18.969Z,4.32
2023-02-06T14:27:17.742Z,6.20
2023-02-06T14:38:05.822Z,5.20
2023-02-06T14:43:04.319Z,4.30
2023-02-06T14:48:00.837Z,4.38
2023-02-06T14:53:07.662Z,4.30
2023-02-06T14:58:30.597Z,4.95
2023-02-06T15:03:44.179Z,5.55
2023-02-06T15:08:37.927Z,5.68
2023-02-06T15:13:51.952Z,4.82
2023-02-06T15:18:45.208Z,3.88
2023-02-06T15:23:55.133Z,4.68
2023-02-06T15:28:47.868Z,4.65
2023-02-06T15:33:42.322Z,5.85
2023-02-06T15:38:35.213Z,5.15
2023-02-06T15:43:28.277Z,4.88
2023-02-06T15:48:28.369Z,4.95
2023-02-06T15:53:28.728Z,4.15
2023-02-06T15:58:21.963Z,6.25
2023-02-06T16:03:19.061Z,6.75
2023-02-06T16:08:25.119Z,7.57
2023-02-06T16:13:27.176Z,4.93
2023-02-06T16:18:26.310Z,6.15
2023-02-06T16:23:29.527Z,6.55
2023-02-06T16:28:27.395Z,10.20
2023-02-06T16:33:47.130Z,6.72
2023-02-06T16:43:41.929Z,5.15
2023-02-06T16:48:41.269Z,6.15
2023-02-06T16:58:30.727Z,6.57
2023-02-06T17:03:23.636Z,5.57
2023-02-06T17:08:22.571Z,5.65
2023-02-06T17:13:20.559Z,5.53
2023-02-06T17:18:18.135Z,5.20
2023-02-06T17:23:11.703Z,4.97
2023-02-06T17:28:07.847Z,7.30
2023-02-06T17:33:00.595Z,7.25
2023-02-06T17:37:54.265Z,8.15
2023-02-06T17:42:47.149Z,6.25
2023-02-06T17:47:41.404Z,5.18
2023-02-06T17:52:34.899Z,8.18
2023-02-06T17:57:30.028Z,8.82
2023-02-06T18:02:23.634Z,10.10
2023-02-06T18:07:16.860Z,12.65
2023-02-06T18:12:10.336Z,8.98
2023-02-06T18:17:04.527Z,12.18
2023-02-06T18:21:58.113Z,8.13
2023-02-06T18:26:51.741Z,7.78
2023-02-06T18:31:45.721Z,7.75
2023-02-06T18:36:39.156Z,8.45
2023-02-06T18:41:50.720Z,7.93
2023-02-06T18:46:44.542Z,9.70
2023-02-06T18:51:37.105Z,9.40
2023-02-06T18:56:31.735Z,11.32
2023-02-06T19:01:25.173Z,9.35
2023-02-06T19:06:35.706Z,9.93
2023-02-06T19:11:28.709Z,9.77
2023-02-06T19:16:22.019Z,11.05
2023-02-06T19:21:19.657Z,13.25
2023-02-06T19:26:15.915Z,12.77
2023-02-06T19:31:10.088Z,13.25
2023-02-06T19:36:08.597Z,16.77
2023-02-06T19:41:28.128Z,18.67
2023-02-06T19:46:23.808Z,21.48
2023-02-06T19:51:20.678Z,18.10
2023-02-06T19:56:35.658Z,17.98
2023-02-06T20:01:30.293Z,15.18
2023-02-06T20:06:23.768Z,12.18
2023-02-06T20:11:20.217Z,12.35
2023-02-06T20:16:22.554Z,13.98
2023-02-06T20:21:23.086Z,15.40
2023-02-06T20:26:18.223Z,16.75
2023-02-06T20:31:11.529Z,15.70
2023-02-06T20:36:10.654Z,22.55
2023-02-06T20:45:58.232Z,21.98
2023-02-06T20:50:57.325Z,19.65
2023-02-06T20:55:50.697Z,16.13
2023-02-06T21:00:44.223Z,14.48
2023-02-06T21:05:37.103Z,14.90
2023-02-06T21:10:31.410Z,14.73
2023-02-06T21:15:24.545Z,14.52
2023-02-06T21:20:18.080Z,15.13
2023-02-06T21:25:11.429Z,16.10
2023-02-06T21:30:06.583Z,16.52
2023-02-06T21:34:59.607Z,17.05
2023-02-06T21:39:52.423Z,14.65
2023-02-06T21:44:45.715Z,16.15
2023-02-06T21:49:38.569Z,15.02
2023-02-06T21:54:32.280Z,13.82
2023-02-06T21:59:25.010Z,16.55
2023-02-06T22:04:19.319Z,14.13
2023-02-06T22:09:16.335Z,15.82
2023-02-06T22:14:12.966Z,14.27
2023-02-06T22:19:07.366Z,18.67
2023-02-06T22:24:02.802Z,17.40
2023-02-06T22:28:58.256Z,16.85
2023-02-06T22:33:52.232Z,17.45
2023-02-06T22:38:47.238Z,16.52
2023-02-06T22:43:40.613Z,18.48
2023-02-06T22:48:33.767Z,15.25
2023-02-06T22:53:31.365Z,15.30
2023-02-06T22:58:24.833Z,13.50
2023-02-06T23:03:18.316Z,16.20
2023-02-06T23:08:12.102Z,17.02
2023-02-06T23:13:05.381Z,15.30
2023-02-06T23:17:58.049Z,14.65
2023-02-06T23:22:51.784Z,15.40
2023-02-06T23:27:44.146Z,16.35
2023-02-06T23:32:38.092Z,16.33
2023-02-06T23:37:31.465Z,17.67
2023-02-06T23:42:25.418Z,15.98
2023-02-06T23:47:18.854Z,16.45
2023-02-06T23:52:12.564Z,15.88
2023-02-06T23:57:06.309Z,15.50
